Time;durP1;ratioP1;P1;durP2;ratioP2;P2;SDS_P1;SDS_P2;PMS_P1;PMS_P2;Temp;Humidity;BMP_temperature;BMP_pressure;BME280_temperature;BME280_humidity;BME280_pressure;Samples;Min_cycle;Max_cycle;Signal;HPM_P1;HPM_P2
2022/01/07 00:01:40;;;;;;;;;;;;;;;2.94;86.39258;101286.2;;;;-83
2022/01/07 00:06:33;;;;;;;11;3.6;;;;;;;;;;;;;-83
2022/01/07 00:06:42;;;;;;;;;;;;;;;2.88;86.69629;101280.2;;;;-83
2022/01/07 00:11:40;;;;;;;;;;;;;;;2.85;87.02539;101278.2;;;;-83
2022/01/07 00:16:41;;;;;;;;;;;;;;;2.81;87.27832;101267.8;;;;-84
2022/01/07 00:21:40;;;;;;;;;;;;;;;2.79;87.49121;101248.3;;;;-85
2022/01/07 00:26:40;;;;;;;;;;;;;;;2.77;87.63867;101239.2;;;;-83
2022/01/07 00:31:40;;;;;;;;;;;;;;;2.75;87.85059;101241;;;;-84
2022/01/07 00:36:32;;;;;;;9.4;3.9;;;;;;;;;;;;;-83
2022/01/07 00:36:42;;;;;;;;;;;;;;;2.73;88.06543;101232.4;;;;-83
2022/01/07 00:41:45;;;;;;;;;;;;;;;2.73;88.2373;101226.5;;;;-84
2022/01/07 00:46:41;;;;;;;;;;;;;;;2.7;88.32031;101225;;;;-84
2022/01/07 00:51:40;;;;;;;;;;;;;;;2.68;88.46582;101210.5;;;;-84
2022/01/07 00:56:40;;;;;;;;;;;;;;;2.65;88.52539;101213.3;;;;-84
2022/01/07 01:01:40;;;;;;;;;;;;;;;2.64;88.74902;101206.4;;;;-84
2022/01/07 01:07:52;;;;;;;;;;;;;;;2.61;88.8623;101198.6;;;;-85
2022/01/07 01:11:41;;;;;;;;;;;;;;;2.6;89.00391;101190.8;;;;-84
2022/01/07 01:16:48;;;;;;;;;;;;;;;2.6;89.0127;101181.9;;;;-84
2022/01/07 01:30:33;;;;;;;;;;;;;;;2.58;89.1709;101160;;;;-86
2022/01/07 01:35:32;;;;;;;;;;;;;;;2.58;89.30078;101156.2;;;;-86
2022/01/07 01:36:31;;;;;;;8.9;3.6;;;;;;;;;;;;;-84
2022/01/07 01:40:30;;;;;;;;;;;;;;;2.57;89.48535;101142.8;;;;-85
2022/01/07 01:45:29;;;;;;;;;;;;;;;2.57;89.47266;101137.1;;;;-85
2022/01/07 01:50:30;;;;;;;;;;;;;;;2.58;89.58301;101136.4;;;;-84
2022/01/07 01:55:30;;;;;;;;;;;;;;;2.58;89.5498;101135;;;;-79
2022/01/07 02:00:30;;;;;;;;;;;;;;;2.59;89.64063;101132.7;;;;-80
2022/01/07 02:05:29;;;;;;;;;;;;;;;2.6;89.58691;101132.2;;;;-80
2022/01/07 02:06:31;;;;;;;8.5;4.1;;;;;;;;;;;;;-79
2022/01/07 02:10:29;;;;;;;;;;;;;;;2.61;89.64258;101117.8;;;;-79
2022/01/07 02:15:29;;;;;;;;;;;;;;;2.62;89.69824;101108.8;;;;-79
2022/01/07 02:20:34;;;;;;;;;;;;;;;2.64;89.81055;101097.4;;;;-84
2022/01/07 02:25:30;;;;;;;;;;;;;;;2.65;89.81445;101086.2;;;;-84
2022/01/07 02:30:30;;;;;;;;;;;;;;;2.67;89.97852;101085.5;;;;-84
2022/01/07 02:35:32;;;;;;;;;;;;;;;2.68;90.1123;101069.5;;;;-85
2022/01/07 02:36:31;;;;;;;10.5;4.5;;;;;;;;;;;;;-85
2022/01/07 02:40:29;;;;;;;;;;;;;;;2.7;90.01953;101062.4;;;;-85
2022/01/07 02:45:28;;;;;;;;;;;;;;;2.71;89.95605;101073.7;;;;-80
2022/01/07 02:50:30;;;;;;;;;;;;;;;2.72;90.03418;101062;;;;-80
2022/01/07 02:55:29;;;;;;;;;;;;;;;2.73;90.13477;101063.4;;;;-80
2022/01/07 03:00:29;;;;;;;;;;;;;;;2.75;90.2793;101064.1;;;;-80
2022/01/07 03:05:29;;;;;;;;;;;;;;;2.76;90.20605;101052.7;;;;-79
2022/01/07 03:06:30;;;;;;;14.6;5.3;;;;;;;;;;;;;-78
2022/01/07 03:10:31;;;;;;;;;;;;;;;2.79;90.18945;101046.3;;;;-84
2022/01/07 03:15:30;;;;;;;;;;;;;;;2.79;90.31934;101041.4;;;;-85
2022/01/07 03:20:29;;;;;;;;;;;;;;;2.8;90.36719;101030.6;;;;-80
2022/01/07 03:25:29;;;;;;;;;;;;;;;2.83;90.46973;101025.6;;;;-79
2022/01/07 03:30:29;;;;;;;;;;;;;;;2.86;90.46484;101018.5;;;;-80
2022/01/07 03:35:29;;;;;;;;;;;;;;;2.88;90.57715;101007;;;;-78
2022/01/07 03:36:29;;;;;;;9.9;4.9;;;;;;;;;;;;;-79
2022/01/07 03:40:29;;;;;;;;;;;;;;;2.91;90.47461;100994.7;;;;-79
2022/01/07 03:45:28;;;;;;;;;;;;;;;2.96;90.77832;101004.7;;;;-79
2022/01/07 03:50:30;;;;;;;;;;;;;;;2.99;90.57813;100991.2;;;;-79
2022/01/07 03:55:30;;;;;;;;;;;;;;;3;90.68848;100971.1;;;;-79
2022/01/07 04:00:32;;;;;;;;;;;;;;;3.02;90.70508;100967.3;;;;-80
2022/01/07 04:05:28;;;;;;;;;;;;;;;3.04;90.57715;100969.3;;;;-80
2022/01/07 04:06:29;;;;;;;11.4;5.3;;;;;;;;;;;;;-80
2022/01/07 04:10:30;;;;;;;;;;;;;;;3.06;90.63672;100966.3;;;;-84
2022/01/07 04:15:32;;;;;;;;;;;;;;;3.08;90.52148;100959;;;;-85
2022/01/07 04:20:31;;;;;;;;;;;;;;;3.1;90.57129;100953.6;;;;-84
2022/01/07 04:25:30;;;;;;;;;;;;;;;3.14;90.68652;100943.2;;;;-85
2022/01/07 04:30:31;;;;;;;;;;;;;;;3.16;90.56055;100942.1;;;;-85
2022/01/07 04:35:29;;;;;;;;;;;;;;;3.19;90.55371;100944.2;;;;-80
2022/01/07 04:36:28;;;;;;;13.1;6.2;;;;;;;;;;;;;-81
2022/01/07 04:40:28;;;;;;;;;;;;;;;3.22;90.63672;100939.5;;;;-80
2022/01/07 04:45:29;;;;;;;;;;;;;;;3.23;90.48926;100944.8;;;;-80
2022/01/07 04:50:32;;;;;;;;;;;;;;;3.27;90.59473;100937.4;;;;-85
2022/01/07 04:55:29;;;;;;;;;;;;;;;3.29;90.45703;100945.1;;;;-85
2022/01/07 05:00:29;;;;;;;;;;;;;;;3.32;90.5498;100950.8;;;;-86
2022/01/07 05:05:30;;;;;;;;;;;;;;;3.35;90.53613;100945.9;;;;-85
2022/01/07 05:06:44;;;;;;;15.9;6.8;;;;;;;;;;;;;-85
2022/01/07 05:10:30;;;;;;;;;;;;;;;3.37;90.50684;100937.5;;;;-85
2022/01/07 05:15:30;;;;;;;;;;;;;;;3.38;90.44434;100935;;;;-85
2022/01/07 05:20:29;;;;;;;;;;;;;;;3.39;90.46777;100938.4;;;;-84
2022/01/07 05:25:34;;;;;;;;;;;;;;;3.4;90.4043;100937;;;;-84
2022/01/07 05:30:30;;;;;;;;;;;;;;;3.39;90.46973;100937.2;;;;-85
2022/01/07 05:35:34;;;;;;;;;;;;;;;3.37;90.48535;100938.3;;;;-85
2022/01/07 05:36:28;;;;;;;13.6;6.6;;;;;;;;;;;;;-86
2022/01/07 05:40:31;;;;;;;;;;;;;;;3.37;90.53906;100937.2;;;;-84
2022/01/07 05:45:31;;;;;;;;;;;;;;;3.37;90.61523;100940.8;;;;-84
2022/01/07 05:50:29;;;;;;;;;;;;;;;3.34;90.58789;100938.5;;;;-84
2022/01/07 05:55:29;;;;;;;;;;;;;;;3.33;90.88965;100929.9;;;;-85
2022/01/07 06:00:31;;;;;;;;;;;;;;;3.29;90.82422;100919.6;;;;-85
2022/01/07 06:05:29;;;;;;;;;;;;;;;3.26;90.92871;100933.1;;;;-85
2022/01/07 06:06:33;;;;;;;12.3;6;;;;;;;;;;;;;-85
2022/01/07 06:10:30;;;;;;;;;;;;;;;3.25;90.92676;100929.5;;;;-86
2022/01/07 06:15:30;;;;;;;;;;;;;;;3.25;90.90527;100932.9;;;;-84
2022/01/07 06:20:28;;;;;;;;;;;;;;;3.27;91.11523;100932.9;;;;-80
2022/01/07 06:25:28;;;;;;;;;;;;;;;3.31;91.0166;100939.8;;;;-81
2022/01/07 06:30:29;;;;;;;;;;;;;;;3.33;90.99805;100934.8;;;;-79
2022/01/07 06:35:30;;;;;;;;;;;;;;;3.32;90.92969;100937.9;;;;-80
2022/01/07 06:36:28;;;;;;;15.2;6;;;;;;;;;;;;;-80
2022/01/07 06:40:28;;;;;;;;;;;;;;;3.3;91.00195;100936.6;;;;-78
2022/01/07 06:45:29;;;;;;;;;;;;;;;3.27;91.13672;100932.6;;;;-79
2022/01/07 06:50:28;;;;;;;;;;;;;;;3.23;91.0625;100921;;;;-79
2022/01/07 06:55:28;;;;;;;;;;;;;;;3.19;91.13867;100930.8;;;;-78
2022/01/07 07:00:29;;;;;;;;;;;;;;;3.15;91.42578;100928.5;;;;-85
2022/01/07 07:05:28;;;;;;;;;;;;;;;3.14;91.44336;100926;;;;-85
2022/01/07 07:06:27;;;;;;;15;5.5;;;;;;;;;;;;;-84
2022/01/07 07:10:29;;;;;;;;;;;;;;;3.09;91.31445;100924.7;;;;-86
2022/01/07 07:15:30;;;;;;;;;;;;;;;3.04;91.31445;100923.6;;;;-85
2022/01/07 07:20:31;;;;;;;;;;;;;;;3.03;91.41016;100930.2;;;;-86
2022/01/07 07:25:30;;;;;;;;;;;;;;;3.03;91.75684;100930;;;;-84
2022/01/07 07:30:34;;;;;;;;;;;;;;;3.02;91.63574;100930.6;;;;-85
2022/01/07 07:36:30;;;;;;;17.1;6.3;;;;;;;;;;;;;-84
2022/01/07 07:40:28;;;;;;;;;;;;;;;3.05;91.73828;100924.8;;;;-86
2022/01/07 07:45:29;;;;;;;;;;;;;;;3.09;91.68359;100938.7;;;;-85
2022/01/07 07:50:29;;;;;;;;;;;;;;;3.14;91.74902;100945;;;;-86
2022/01/07 07:55:28;;;;;;;;;;;;;;;3.21;91.84082;100964.8;;;;-85
2022/01/07 08:00:28;;;;;;;;;;;;;;;3.27;91.79785;100968.3;;;;-86
2022/01/07 08:05:29;;;;;;;;;;;;;;;3.29;91.57227;101002.7;;;;-86
2022/01/07 08:06:26;;;;;;;19.4;8;;;;;;;;;;;;;-86
2022/01/07 08:10:29;;;;;;;;;;;;;;;3.28;91.5293;100995.6;;;;-85
2022/01/07 08:20:29;;;;;;;;;;;;;;;3.12;91.38574;100963.8;;;;-86
2022/01/07 08:25:29;;;;;;;;;;;;;;;3.04;91.3916;100952.6;;;;-87
2022/01/07 08:30:36;;;;;;;;;;;;;;;2.95;91.38379;100950;;;;-86
2022/01/07 08:35:31;;;;;;;;;;;;;;;2.9;91.30664;100954.1;;;;-86
2022/01/07 08:36:27;;;;;;;12.3;5.2;;;;;;;;;;;;;-87
2022/01/07 08:40:29;;;;;;;;;;;;;;;2.85;91.32129;100950;;;;-86
2022/01/07 08:45:30;;;;;;;;;;;;;;;2.86;91.23438;100940.6;;;;-86
2022/01/07 08:50:29;;;;;;;;;;;;;;;2.87;91.19238;100952.3;;;;-86
2022/01/07 08:55:28;;;;;;;;;;;;;;;2.86;91.02832;100948.4;;;;-86
2022/01/07 09:00:29;;;;;;;;;;;;;;;2.83;90.90332;100939.8;;;;-86
2022/01/07 09:05:29;;;;;;;;;;;;;;;2.82;90.85645;100940.9;;;;-87
2022/01/07 09:06:25;;;;;;;10.2;4.3;;;;;;;;;;;;;-87
2022/01/07 09:10:29;;;;;;;;;;;;;;;2.8;90.75488;100946.8;;;;-87
2022/01/07 09:15:29;;;;;;;;;;;;;;;2.83;90.93555;100945.2;;;;-87
2022/01/07 09:20:35;;;;;;;;;;;;;;;2.84;90.89453;100948.5;;;;-87
2022/01/07 09:25:28;;;;;;;;;;;;;;;2.86;90.93066;100952.7;;;;-86
2022/01/07 09:30:30;;;;;;;;;;;;;;;2.87;90.87012;100962.9;;;;-87
2022/01/07 09:35:28;;;;;;;;;;;;;;;2.93;90.94434;100964.5;;;;-86
2022/01/07 09:36:25;;;;;;;10;4.4;;;;;;;;;;;;;-86
2022/01/07 09:40:29;;;;;;;;;;;;;;;2.96;90.89746;100967.5;;;;-86
2022/01/07 09:45:30;;;;;;;;;;;;;;;2.99;91.08789;100950.1;;;;-86
2022/01/07 09:50:30;;;;;;;;;;;;;;;3.01;91.01563;100943.9;;;;-87
2022/01/07 09:55:28;;;;;;;;;;;;;;;3.05;91.12305;100946.2;;;;-86
2022/01/07 10:00:35;;;;;;;;;;;;;;;3.06;91.05957;100945.7;;;;-86
2022/01/07 10:05:29;;;;;;;;;;;;;;;3.05;90.92969;100947.8;;;;-86
2022/01/07 10:06:26;;;;;;;8.5;3.3;;;;;;;;;;;;;-85
2022/01/07 10:10:30;;;;;;;;;;;;;;;3.06;90.9082;100942.5;;;;-85
2022/01/07 10:15:30;;;;;;;;;;;;;;;3.06;90.92969;100936.9;;;;-86
2022/01/07 10:20:30;;;;;;;;;;;;;;;3.12;91.0498;100937.4;;;;-87
2022/01/07 10:25:33;;;;;;;;;;;;;;;3.19;91.05469;100946.5;;;;-85
2022/01/07 10:30:29;;;;;;;;;;;;;;;3.26;90.90527;100934.8;;;;-86
2022/01/07 10:35:30;;;;;;;;;;;;;;;3.3;90.88184;100931.7;;;;-85
2022/01/07 10:36:29;;;;;;;7;2.3;;;;;;;;;;;;;-86
2022/01/07 10:40:34;;;;;;;;;;;;;;;3.31;90.83203;100926.9;;;;-85
2022/01/07 10:45:34;;;;;;;;;;;;;;;3.38;90.97559;100926.3;;;;-86
2022/01/07 10:50:29;;;;;;;;;;;;;;;3.53;91.07324;100936.1;;;;-79
2022/01/07 10:55:28;;;;;;;;;;;;;;;3.69;91.04297;100935.9;;;;-79
2022/01/07 11:00:28;;;;;;;;;;;;;;;3.8;90.70703;100922.8;;;;-80
2022/01/07 11:05:28;;;;;;;;;;;;;;;3.88;90.41895;100922.3;;;;-80
2022/01/07 11:06:23;;;;;;;6.4;2.7;;;;;;;;;;;;;-80
2022/01/07 11:10:28;;;;;;;;;;;;;;;3.98;90.30957;100919.8;;;;-80
2022/01/07 11:15:28;;;;;;;;;;;;;;;4.08;90.16699;100903.4;;;;-79
2022/01/07 11:20:28;;;;;;;;;;;;;;;4.19;90.02734;100906.9;;;;-86
2022/01/07 11:25:33;;;;;;;;;;;;;;;4.35;89.95215;100913.5;;;;-84
2022/01/07 11:30:32;;;;;;;;;;;;;;;4.58;89.63867;100911.3;;;;-87
2022/01/07 11:35:51;;;;;;;;;;;;;;;4.69;88.95605;100909.3;;;;-84
2022/01/07 11:36:38;;;;;;;8.7;1.6;;;;;;;;;;;;;-85
2022/01/07 11:40:45;;;;;;;;;;;;;;;4.75;88.5332;100907;;;;-84
2022/01/07 11:45:42;;;;;;;;;;;;;;;4.78;88.09082;100890.3;;;;-85
2022/01/07 11:50:29;;;;;;;;;;;;;;;4.8;87.78027;100895;;;;-80
2022/01/07 11:55:34;;;;;;;;;;;;;;;4.83;87.49219;100894.3;;;;-85
2022/01/07 12:00:40;;;;;;;;;;;;;;;4.81;87.30273;100896.1;;;;-84
2022/01/07 12:05:38;;;;;;;;;;;;;;;4.78;87.03613;100895.1;;;;-83
2022/01/07 12:06:34;;;;;;;5;0.9;;;;;;;;;;;;;-83
2022/01/07 12:10:29;;;;;;;;;;;;;;;4.78;86.88379;100901.8;;;;-84
2022/01/07 12:15:32;;;;;;;;;;;;;;;4.82;86.7832;100910.5;;;;-82
2022/01/07 12:20:48;;;;;;;;;;;;;;;4.87;86.49707;100908.2;;;;-83
2022/01/07 12:25:54;;;;;;;;;;;;;;;4.87;86.35645;100900.5;;;;-83
2022/01/07 12:30:29;;;;;;;;;;;;;;;4.87;86.44434;100900.3;;;;-84
2022/01/07 12:35:42;;;;;;;;;;;;;;;4.91;86.22266;100895.8;;;;-84
2022/01/07 12:36:37;;;;;;;5.4;1;;;;;;;;;;;;;-81
2022/01/07 12:40:39;;;;;;;;;;;;;;;4.94;85.76953;100891.9;;;;-85
2022/01/07 12:45:37;;;;;;;;;;;;;;;4.95;85.49023;100893.9;;;;-86
2022/01/07 12:50:38;;;;;;;;;;;;;;;4.99;85.20313;100891.2;;;;-84
2022/01/07 12:55:34;;;;;;;;;;;;;;;5.04;84.95215;100885.9;;;;-85
2022/01/07 13:00:30;;;;;;;;;;;;;;;5.03;84.67578;100897.6;;;;-84
2022/01/07 13:05:35;;;;;;;;;;;;;;;4.96;84.67188;100888.8;;;;-85
2022/01/07 13:06:24;;;;;;;7.6;0.8;;;;;;;;;;;;;-83
2022/01/07 13:10:32;;;;;;;;;;;;;;;4.92;84.75391;100880.8;;;;-83
2022/01/07 13:15:46;;;;;;;;;;;;;;;4.9;84.78125;100870.9;;;;-83
2022/01/07 13:20:35;;;;;;;;;;;;;;;4.92;84.81934;100875.5;;;;-84
2022/01/07 13:25:29;;;;;;;;;;;;;;;4.93;84.65625;100872.6;;;;-84
2022/01/07 13:30:40;;;;;;;;;;;;;;;4.86;84.61035;100864.4;;;;-85
2022/01/07 13:35:30;;;;;;;;;;;;;;;4.78;84.70215;100852.8;;;;-84
2022/01/07 13:36:23;;;;;;;4.9;0.8;;;;;;;;;;;;;-84
2022/01/07 13:40:37;;;;;;;;;;;;;;;4.7;84.79688;100849.2;;;;-85
2022/01/07 13:45:29;;;;;;;;;;;;;;;4.65;84.92969;100853;;;;-85
2022/01/07 13:50:29;;;;;;;;;;;;;;;4.61;85.07324;100857.9;;;;-85
2022/01/07 13:55:34;;;;;;;;;;;;;;;4.56;85.26953;100860.2;;;;-85
2022/01/07 14:00:32;;;;;;;;;;;;;;;4.49;85.26758;100856.7;;;;-83
2022/01/07 14:05:28;;;;;;;;;;;;;;;4.41;85.35156;100860.4;;;;-82
2022/01/07 14:06:25;;;;;;;5;1;;;;;;;;;;;;;-83
2022/01/07 14:10:31;;;;;;;;;;;;;;;4.34;85.43457;100859;;;;-83
2022/01/07 14:15:32;;;;;;;;;;;;;;;4.29;85.50195;100859.3;;;;-82
2022/01/07 14:20:28;;;;;;;;;;;;;;;4.26;85.63477;100865.5;;;;-82
2022/01/07 14:25:28;;;;;;;;;;;;;;;4.24;85.70898;100867.2;;;;-83
2022/01/07 14:30:29;;;;;;;;;;;;;;;4.23;85.72656;100870.6;;;;-83
2022/01/07 14:35:28;;;;;;;;;;;;;;;4.21;85.69043;100861.5;;;;-81
2022/01/07 14:36:23;;;;;;;4.6;0.8;;;;;;;;;;;;;-81
2022/01/07 14:40:29;;;;;;;;;;;;;;;4.19;85.90527;100860.3;;;;-82
2022/01/07 14:45:29;;;;;;;;;;;;;;;4.19;85.99023;100855;;;;-83
2022/01/07 14:50:28;;;;;;;;;;;;;;;4.2;85.98242;100854.3;;;;-82
2022/01/07 14:55:34;;;;;;;;;;;;;;;4.22;85.85742;100864.3;;;;-82
2022/01/07 15:00:29;;;;;;;;;;;;;;;4.22;85.69434;100854.9;;;;-84
2022/01/07 15:05:29;;;;;;;;;;;;;;;4.19;85.49121;100854.9;;;;-83
2022/01/07 15:06:22;;;;;;;5.4;1.3;;;;;;;;;;;;;-85
2022/01/07 15:10:28;;;;;;;;;;;;;;;4.13;85.56738;100862.3;;;;-84
2022/01/07 15:20:29;;;;;;;;;;;;;;;4.02;85.68555;100866.2;;;;-83
2022/01/07 15:25:28;;;;;;;;;;;;;;;3.94;85.72559;100856.6;;;;-82
2022/01/07 15:30:28;;;;;;;;;;;;;;;3.87;85.98047;100860.7;;;;-83
2022/01/07 15:35:30;;;;;;;;;;;;;;;3.77;86.05176;100861;;;;-82
2022/01/07 15:36:21;;;;;;;3.7;1.1;;;;;;;;;;;;;-82
2022/01/07 15:40:28;;;;;;;;;;;;;;;3.68;85.16211;100860.9;;;;-83
2022/01/07 15:45:29;;;;;;;;;;;;;;;3.59;85.72168;100866.7;;;;-82
2022/01/07 15:50:29;;;;;;;;;;;;;;;3.48;86.03516;100863.3;;;;-83
2022/01/07 15:55:28;;;;;;;;;;;;;;;3.4;86.10547;100867.8;;;;-83
2022/01/07 16:00:28;;;;;;;;;;;;;;;3.3;86.13086;100872.4;;;;-83
2022/01/07 16:05:31;;;;;;;;;;;;;;;3.2;86.23047;100872.4;;;;-83
2022/01/07 16:06:21;;;;;;;3.8;0.8;;;;;;;;;;;;;-85
2022/01/07 16:10:30;;;;;;;;;;;;;;;3.1;86.3623;100874.2;;;;-83
2022/01/07 16:15:28;;;;;;;;;;;;;;;3.05;86.50098;100878.1;;;;-83
2022/01/07 16:20:28;;;;;;;;;;;;;;;3.01;86.68945;100883.4;;;;-82
2022/01/07 16:25:29;;;;;;;;;;;;;;;2.99;86.79395;100881.8;;;;-84
2022/01/07 16:30:28;;;;;;;;;;;;;;;2.98;86.90039;100873.8;;;;-83
2022/01/07 16:35:28;;;;;;;;;;;;;;;2.96;86.88672;100881.8;;;;-83
2022/01/07 16:36:22;;;;;;;4;0.9;;;;;;;;;;;;;-83
2022/01/07 16:40:28;;;;;;;;;;;;;;;2.95;87.04492;100881.9;;;;-84
2022/01/07 16:45:28;;;;;;;;;;;;;;;2.91;86.9834;100884.7;;;;-82
2022/01/07 16:50:29;;;;;;;;;;;;;;;2.88;86.79395;100887.2;;;;-82
2022/01/07 16:55:28;;;;;;;;;;;;;;;2.82;86.91309;100883.9;;;;-83
2022/01/07 17:00:28;;;;;;;;;;;;;;;2.79;87.05762;100885;;;;-84
2022/01/07 17:05:28;;;;;;;;;;;;;;;2.71;87.1709;100878.9;;;;-83
2022/01/07 17:06:23;;;;;;;5.4;0.8;;;;;;;;;;;;;-82
2022/01/07 17:10:33;;;;;;;;;;;;;;;2.63;87.24316;100882;;;;-84
2022/01/07 17:15:28;;;;;;;;;;;;;;;2.57;87.25195;100881.1;;;;-82
2022/01/07 17:20:30;;;;;;;;;;;;;;;2.52;87.20996;100875;;;;-83
2022/01/07 17:25:28;;;;;;;;;;;;;;;2.46;87.16406;100874.3;;;;-79
2022/01/07 17:30:28;;;;;;;;;;;;;;;2.42;87.34082;100880.6;;;;-79
2022/01/07 17:35:28;;;;;;;;;;;;;;;2.39;87.34473;100881.4;;;;-79
2022/01/07 17:36:20;;;;;;;4.2;1;;;;;;;;;;;;;-79
2022/01/07 17:40:29;;;;;;;;;;;;;;;2.38;87.41895;100898.9;;;;-80
2022/01/07 17:45:28;;;;;;;;;;;;;;;2.39;87.30273;100905.7;;;;-79
2022/01/07 17:50:28;;;;;;;;;;;;;;;2.44;87.09375;100922.3;;;;-79
2022/01/07 17:55:28;;;;;;;;;;;;;;;2.47;86.66797;100921.2;;;;-84
2022/01/07 18:00:28;;;;;;;;;;;;;;;2.45;86.95703;100910;;;;-85
2022/01/07 18:05:29;;;;;;;;;;;;;;;2.42;87.4707;100899.4;;;;-84
2022/01/07 18:06:20;;;;;;;4.2;0.7;;;;;;;;;;;;;-84
2022/01/07 18:10:28;;;;;;;;;;;;;;;2.4;87.53125;100900.8;;;;-80
2022/01/07 18:15:28;;;;;;;;;;;;;;;2.37;87.74219;100905.7;;;;-79
2022/01/07 18:20:28;;;;;;;;;;;;;;;2.34;87.79004;100919.1;;;;-79
2022/01/07 18:25:28;;;;;;;;;;;;;;;2.33;87.78613;100917.8;;;;-80
2022/01/07 18:30:29;;;;;;;;;;;;;;;2.32;87.85156;100919.9;;;;-83
2022/01/07 18:35:28;;;;;;;;;;;;;;;2.34;87.99414;100928.2;;;;-82
2022/01/07 18:36:19;;;;;;;4;0.8;;;;;;;;;;;;;-82
2022/01/07 18:40:29;;;;;;;;;;;;;;;2.37;87.99121;100920.6;;;;-82
2022/01/07 18:45:28;;;;;;;;;;;;;;;2.34;88.01758;100921.2;;;;-83
2022/01/07 18:50:28;;;;;;;;;;;;;;;2.33;88.14551;100921.8;;;;-83
2022/01/07 18:55:30;;;;;;;;;;;;;;;2.28;88.13477;100926.1;;;;-79
2022/01/07 19:00:29;;;;;;;;;;;;;;;2.22;88.1123;100927.9;;;;-79
2022/01/07 19:05:28;;;;;;;;;;;;;;;2.15;87.94824;100932.4;;;;-83
2022/01/07 19:06:18;;;;;;;3.1;0.7;;;;;;;;;;;;;-83
2022/01/07 19:10:28;;;;;;;;;;;;;;;2.1;87.94727;100939;;;;-82
2022/01/07 19:15:28;;;;;;;;;;;;;;;2.06;87.9707;100954.5;;;;-82
2022/01/07 19:20:28;;;;;;;;;;;;;;;2.05;88.0791;100971.4;;;;-82
2022/01/07 19:25:28;;;;;;;;;;;;;;;2.07;88.2002;100968.5;;;;-83
2022/01/07 19:30:28;;;;;;;;;;;;;;;2.11;88.26172;100966.1;;;;-84
2022/01/07 19:35:30;;;;;;;;;;;;;;;2.11;88.42383;100953.9;;;;-84
2022/01/07 19:36:17;;;;;;;4.3;0.9;;;;;;;;;;;;;-83
2022/01/07 19:40:28;;;;;;;;;;;;;;;2.1;88.55371;100945.3;;;;-84
2022/01/07 19:45:28;;;;;;;;;;;;;;;2.09;88.62598;100948.1;;;;-84
2022/01/07 19:50:28;;;;;;;;;;;;;;;2.08;88.64551;100944;;;;-85
2022/01/07 19:55:28;;;;;;;;;;;;;;;2.05;88.74805;100934.9;;;;-83
2022/01/07 20:00:29;;;;;;;;;;;;;;;2.02;88.77246;100935.4;;;;-82
2022/01/07 20:05:28;;;;;;;;;;;;;;;1.96;88.80469;100934.2;;;;-84
2022/01/07 20:06:17;;;;;;;3.2;0.8;;;;;;;;;;;;;-83
2022/01/07 20:10:29;;;;;;;;;;;;;;;1.89;88.82422;100937;;;;-84
2022/01/07 20:15:29;;;;;;;;;;;;;;;1.86;88.89258;100968.7;;;;-84
2022/01/07 20:20:28;;;;;;;;;;;;;;;1.85;88.88867;100987;;;;-84
2022/01/07 20:25:30;;;;;;;;;;;;;;;1.84;88.92969;100975.8;;;;-83
2022/01/07 20:30:29;;;;;;;;;;;;;;;1.84;88.97559;100960.8;;;;-84
2022/01/07 20:35:29;;;;;;;;;;;;;;;1.85;88.99902;100964.1;;;;-84
2022/01/07 20:36:15;;;;;;;2.5;0.8;;;;;;;;;;;;;-84
2022/01/07 20:40:29;;;;;;;;;;;;;;;1.82;89.03613;100955.5;;;;-85
2022/01/07 20:45:30;;;;;;;;;;;;;;;1.81;89.07715;100954.3;;;;-85
2022/01/07 20:50:30;;;;;;;;;;;;;;;1.8;89.0625;100956;;;;-84
2022/01/07 20:55:28;;;;;;;;;;;;;;;1.77;89.08984;100958.3;;;;-85
2022/01/07 21:00:28;;;;;;;;;;;;;;;1.76;89.07715;100953.5;;;;-84
2022/01/07 21:05:28;;;;;;;;;;;;;;;1.71;89.11035;100953;;;;-79
2022/01/07 21:06:15;;;;;;;3;1.1;;;;;;;;;;;;;-80
2022/01/07 21:10:28;;;;;;;;;;;;;;;1.67;89.13379;100958;;;;-80
2022/01/07 21:15:28;;;;;;;;;;;;;;;1.62;89.16797;100960.8;;;;-80
2022/01/07 21:20:28;;;;;;;;;;;;;;;1.59;89.1709;100960.6;;;;-81
2022/01/07 21:25:28;;;;;;;;;;;;;;;1.56;89.19727;100965.4;;;;-79
2022/01/07 21:30:28;;;;;;;;;;;;;;;1.53;89.20313;100964.3;;;;-79
2022/01/07 21:35:28;;;;;;;;;;;;;;;1.5;89.22949;100972.7;;;;-80
2022/01/07 21:36:15;;;;;;;3.8;1.3;;;;;;;;;;;;;-79
2022/01/07 21:40:28;;;;;;;;;;;;;;;1.51;89.25293;100974.4;;;;-85
2022/01/07 21:45:30;;;;;;;;;;;;;;;1.53;89.25879;100975.9;;;;-85
2022/01/07 21:50:30;;;;;;;;;;;;;;;1.55;89.17383;100967;;;;-84
2022/01/07 21:55:28;;;;;;;;;;;;;;;1.55;89.10938;100963.3;;;;-83
2022/01/07 22:00:29;;;;;;;;;;;;;;;1.53;89.02051;100961.9;;;;-85
2022/01/07 22:05:28;;;;;;;;;;;;;;;1.53;88.98633;100960.9;;;;-84
2022/01/07 22:06:13;;;;;;;4.7;1.4;;;;;;;;;;;;;-86
2022/01/07 22:10:29;;;;;;;;;;;;;;;1.52;89.00488;100964.5;;;;-83
2022/01/07 22:15:28;;;;;;;;;;;;;;;1.51;89.02441;100967.3;;;;-84
2022/01/07 22:20:28;;;;;;;;;;;;;;;1.5;89.02441;100978.6;;;;-84
2022/01/07 22:25:28;;;;;;;;;;;;;;;1.48;88.98633;100983.3;;;;-84
2022/01/07 22:30:28;;;;;;;;;;;;;;;1.44;89.03223;100986.5;;;;-84
2022/01/07 22:35:28;;;;;;;;;;;;;;;1.42;89.05957;100990;;;;-84
2022/01/07 22:36:12;;;;;;;2.6;1.1;;;;;;;;;;;;;-83
2022/01/07 22:40:28;;;;;;;;;;;;;;;1.37;89.14648;100999;;;;-83
2022/01/07 22:45:28;;;;;;;;;;;;;;;1.36;89.17773;100999;;;;-83
2022/01/07 22:50:28;;;;;;;;;;;;;;;1.35;89.18652;101005.1;;;;-84
2022/01/07 22:55:28;;;;;;;;;;;;;;;1.32;89.21289;101001.9;;;;-83
2022/01/07 23:00:28;;;;;;;;;;;;;;;1.28;89.22754;100997.6;;;;-83
2022/01/07 23:05:31;;;;;;;;;;;;;;;1.23;89.2373;100996.5;;;;-83
2022/01/07 23:06:12;;;;;;;3.9;1.2;;;;;;;;;;;;;-82
2022/01/07 23:10:28;;;;;;;;;;;;;;;1.19;89.31445;100997.6;;;;-84
2022/01/07 23:15:29;;;;;;;;;;;;;;;1.13;89.3457;101002.1;;;;-83
2022/01/07 23:20:31;;;;;;;;;;;;;;;1.07;89.31348;101008.6;;;;-83
2022/01/07 23:25:32;;;;;;;;;;;;;;;1.06;89.35254;101026.4;;;;-83
2022/01/07 23:30:29;;;;;;;;;;;;;;;1.04;89.34863;101038.9;;;;-83
2022/01/07 23:35:28;;;;;;;;;;;;;;;1.07;89.4209;101058.2;;;;-83
2022/01/07 23:36:11;;;;;;;3;1;;;;;;;;;;;;;-82
2022/01/07 23:40:42;;;;;;;;;;;;;;;1.1;89.53418;101057.6;;;;-84
2022/01/07 23:45:29;;;;;;;;;;;;;;;1.16;89.66504;101039.2;;;;-83
2022/01/07 23:50:30;;;;;;;;;;;;;;;1.22;89.67773;101050.7;;;;-84
2022/01/07 23:55:29;;;;;;;;;;;;;;;1.27;89.63379;101059.4;;;;-84
